sensor_id;sensor_type;location;lat;lon;timestamp;temperature;humidity
6556;DHT22;3311;48.32423000;14.29074500;2024-02-21T00:02:24;11.90;79.50
6556;DHT22;3311;48.32423000;14.29074500;2024-02-21T00:04:51;11.90;79.70
6556;DHT22;3311;48.32423000;14.29074500;2024-02-21T00:07:18;11.90;79.50
6556;DHT22;3311;48.32423000;14.29074500;2024-02-21T00:09:46;11.90;80.40
6556;DHT22;3311;48.32423000;14.29074500;2024-02-21T00:12:13;11.80;79.40
6556;DHT22;3311;48.32423000;14.29074500;2024-02-21T00:14:41;11.80;80.10
6556;DHT22;3311;48.32423000;14.29074500;2024-02-21T00:17:09;11.80;79.30
6556;DHT22;3311;48.32423000;14.29074500;2024-02-21T00:19:36;11.80;79.60
6556;DHT22;3311;48.32423000;14.29074500;2024-02-21T00:22:04;11.80;79.50
6556;DHT22;3311;48.32423000;14.29074500;2024-02-21T00:24:31;11.80;79.70
6556;DHT22;3311;48.32423000;14.29074500;2024-02-21T00:26:58;11.80;79.30
6556;DHT22;3311;48.32423000;14.29074500;2024-02-21T00:29:25;11.70;79.80
6556;DHT22;3311;48.32423000;14.29074500;2024-02-21T00:31:53;11.70;79.80
6556;DHT22;3311;48.32423000;14.29074500;2024-02-21T00:34:21;11.70;81.00
6556;DHT22;3311;48.32423000;14.29074500;2024-02-21T00:36:49;11.70;80.40
6556;DHT22;3311;48.32423000;14.29074500;2024-02-21T00:39:16;11.70;80.50
6556;DHT22;3311;48.32423000;14.29074500;2024-02-21T00:41:43;11.70;80.50
6556;DHT22;3311;48.32423000;14.29074500;2024-02-21T00:44:11;11.70;80.70
6556;DHT22;3311;48.32423000;14.29074500;2024-02-21T00:46:38;11.70;80.10
6556;DHT22;3311;48.32423000;14.29074500;2024-02-21T00:49:05;11.70;80.40
6556;DHT22;3311;48.32423000;14.29074500;2024-02-21T00:51:34;11.70;80.50
6556;DHT22;3311;48.32423000;14.29074500;2024-02-21T00:54:01;11.70;80.30
6556;DHT22;3311;48.32423000;14.29074500;2024-02-21T00:56:28;11.60;80.70
6556;DHT22;3311;48.32423000;14.29074500;2024-02-21T00:58:56;11.60;80.50
6556;DHT22;3311;48.32423000;14.29074500;2024-02-21T01:01:25;11.60;80.50
6556;DHT22;3311;48.32423000;14.29074500;2024-02-21T01:03:52;11.60;81.10
6556;DHT22;3311;48.32423000;14.29074500;2024-02-21T01:06:20;11.60;81.20
6556;DHT22;3311;48.32423000;14.29074500;2024-02-21T01:08:49;11.70;81.30
6556;DHT22;3311;48.32423000;14.29074500;2024-02-21T01:11:16;11.70;81.20
6556;DHT22;3311;48.32423000;14.29074500;2024-02-21T01:13:44;11.70;81.00
6556;DHT22;3311;48.32423000;14.29074500;2024-02-21T01:16:11;11.70;80.80
6556;DHT22;3311;48.32423000;14.29074500;2024-02-21T01:18:38;11.70;80.80
6556;DHT22;3311;48.32423000;14.29074500;2024-02-21T01:21:07;11.70;80.90
6556;DHT22;3311;48.32423000;14.29074500;2024-02-21T01:23:35;11.70;80.20
6556;DHT22;3311;48.32423000;14.29074500;2024-02-21T01:26:04;11.70;80.20
6556;DHT22;3311;48.32423000;14.29074500;2024-02-21T01:28:34;11.60;79.60
6556;DHT22;3311;48.32423000;14.29074500;2024-02-21T01:31:01;11.60;80.70
6556;DHT22;3311;48.32423000;14.29074500;2024-02-21T01:33:29;11.50;80.60
6556;DHT22;3311;48.32423000;14.29074500;2024-02-21T01:36:01;11.50;80.90
6556;DHT22;3311;48.32423000;14.29074500;2024-02-21T01:38:28;11.50;81.10
6556;DHT22;3311;48.32423000;14.29074500;2024-02-21T01:40:55;11.50;80.90
6556;DHT22;3311;48.32423000;14.29074500;2024-02-21T01:43:25;11.60;81.00
6556;DHT22;3311;48.32423000;14.29074500;2024-02-21T01:45:53;11.60;81.10
6556;DHT22;3311;48.32423000;14.29074500;2024-02-21T01:48:22;11.60;80.40
6556;DHT22;3311;48.32423000;14.29074500;2024-02-21T01:50:50;11.60;81.00
6556;DHT22;3311;48.32423000;14.29074500;2024-02-21T01:53:20;11.50;80.40
6556;DHT22;3311;48.32423000;14.29074500;2024-02-21T01:55:49;11.50;80.70
6556;DHT22;3311;48.32423000;14.29074500;2024-02-21T01:58:16;11.50;79.80
6556;DHT22;3311;48.32423000;14.29074500;2024-02-21T02:00:47;11.40;80.40
6556;DHT22;3311;48.32423000;14.29074500;2024-02-21T02:03:15;11.40;80.60
6556;DHT22;3311;48.32423000;14.29074500;2024-02-21T02:05:44;11.40;80.50
6556;DHT22;3311;48.32423000;14.29074500;2024-02-21T02:08:12;11.40;80.10
6556;DHT22;3311;48.32423000;14.29074500;2024-02-21T02:10:40;11.30;79.90
6556;DHT22;3311;48.32423000;14.29074500;2024-02-21T02:13:08;11.30;80.60
6556;DHT22;3311;48.32423000;14.29074500;2024-02-21T02:15:39;11.40;79.30
6556;DHT22;3311;48.32423000;14.29074500;2024-02-21T02:18:08;11.40;79.00
6556;DHT22;3311;48.32423000;14.29074500;2024-02-21T02:20:35;11.40;80.00
6556;DHT22;3311;48.32423000;14.29074500;2024-02-21T02:23:07;11.40;78.30
6556;DHT22;3311;48.32423000;14.29074500;2024-02-21T02:25:36;11.60;79.40
6556;DHT22;3311;48.32423000;14.29074500;2024-02-21T02:28:05;11.50;78.50
6556;DHT22;3311;48.32423000;14.29074500;2024-02-21T02:30:32;11.50;79.50
6556;DHT22;3311;48.32423000;14.29074500;2024-02-21T02:33:03;11.60;78.90
6556;DHT22;3311;48.32423000;14.29074500;2024-02-21T02:35:31;11.60;78.20
6556;DHT22;3311;48.32423000;14.29074500;2024-02-21T02:38:01;11.60;77.80
6556;DHT22;3311;48.32423000;14.29074500;2024-02-21T02:40:28;11.60;78.90
6556;DHT22;3311;48.32423000;14.29074500;2024-02-21T02:42:56;11.60;79.30
6556;DHT22;3311;48.32423000;14.29074500;2024-02-21T02:45:24;11.70;78.80
6556;DHT22;3311;48.32423000;14.29074500;2024-02-21T02:47:52;11.60;78.60
6556;DHT22;3311;48.32423000;14.29074500;2024-02-21T02:50:21;11.60;78.10
6556;DHT22;3311;48.32423000;14.29074500;2024-02-21T02:52:48;11.60;78.10
6556;DHT22;3311;48.32423000;14.29074500;2024-02-21T02:55:15;11.60;79.20
6556;DHT22;3311;48.32423000;14.29074500;2024-02-21T02:57:43;11.60;78.50
6556;DHT22;3311;48.32423000;14.29074500;2024-02-21T03:00:13;11.60;77.70
6556;DHT22;3311;48.32423000;14.29074500;2024-02-21T03:02:43;11.60;77.90
6556;DHT22;3311;48.32423000;14.29074500;2024-02-21T03:05:15;11.60;78.10
6556;DHT22;3311;48.32423000;14.29074500;2024-02-21T03:07:43;11.60;79.30
6556;DHT22;3311;48.32423000;14.29074500;2024-02-21T03:10:10;11.60;78.00
6556;DHT22;3311;48.32423000;14.29074500;2024-02-21T03:12:38;11.50;77.40
6556;DHT22;3311;48.32423000;14.29074500;2024-02-21T03:15:06;11.60;78.10
6556;DHT22;3311;48.32423000;14.29074500;2024-02-21T03:17:35;11.50;76.90
6556;DHT22;3311;48.32423000;14.29074500;2024-02-21T03:20:02;11.50;77.40
6556;DHT22;3311;48.32423000;14.29074500;2024-02-21T03:22:31;11.50;77.20
6556;DHT22;3311;48.32423000;14.29074500;2024-02-21T03:24:59;11.50;77.90
6556;DHT22;3311;48.32423000;14.29074500;2024-02-21T03:27:27;11.50;77.40
6556;DHT22;3311;48.32423000;14.29074500;2024-02-21T03:29:54;11.60;78.80
6556;DHT22;3311;48.32423000;14.29074500;2024-02-21T03:32:21;11.70;78.70
6556;DHT22;3311;48.32423000;14.29074500;2024-02-21T03:34:50;11.70;77.10
6556;DHT22;3311;48.32423000;14.29074500;2024-02-21T03:37:17;11.60;77.30
6556;DHT22;3311;48.32423000;14.29074500;2024-02-21T03:39:44;11.50;77.40
6556;DHT22;3311;48.32423000;14.29074500;2024-02-21T03:42:11;11.50;77.00
6556;DHT22;3311;48.32423000;14.29074500;2024-02-21T03:44:39;11.50;77.70
6556;DHT22;3311;48.32423000;14.29074500;2024-02-21T03:47:06;11.40;77.10
6556;DHT22;3311;48.32423000;14.29074500;2024-02-21T03:49:36;11.40;77.60
6556;DHT22;3311;48.32423000;14.29074500;2024-02-21T03:52:05;11.50;77.50
6556;DHT22;3311;48.32423000;14.29074500;2024-02-21T03:54:32;11.40;77.60
6556;DHT22;3311;48.32423000;14.29074500;2024-02-21T03:56:59;11.40;77.40
6556;DHT22;3311;48.32423000;14.29074500;2024-02-21T03:59:26;11.40;77.80
6556;DHT22;3311;48.32423000;14.29074500;2024-02-21T04:01:54;11.40;77.90
6556;DHT22;3311;48.32423000;14.29074500;2024-02-21T04:04:21;11.30;77.70
6556;DHT22;3311;48.32423000;14.29074500;2024-02-21T04:06:49;11.30;78.00
6556;DHT22;3311;48.32423000;14.29074500;2024-02-21T04:09:18;11.30;77.90
6556;DHT22;3311;48.32423000;14.29074500;2024-02-21T04:11:46;11.30;78.30
6556;DHT22;3311;48.32423000;14.29074500;2024-02-21T04:14:13;11.30;78.10
6556;DHT22;3311;48.32423000;14.29074500;2024-02-21T04:16:40;11.30;77.80
6556;DHT22;3311;48.32423000;14.29074500;2024-02-21T04:19:07;11.30;77.90
6556;DHT22;3311;48.32423000;14.29074500;2024-02-21T04:21:35;11.30;78.40
6556;DHT22;3311;48.32423000;14.29074500;2024-02-21T04:24:02;11.30;77.30
6556;DHT22;3311;48.32423000;14.29074500;2024-02-21T04:26:33;11.30;77.00
6556;DHT22;3311;48.32423000;14.29074500;2024-02-21T04:29:00;11.40;76.80
6556;DHT22;3311;48.32423000;14.29074500;2024-02-21T04:31:27;11.40;76.10
6556;DHT22;3311;48.32423000;14.29074500;2024-02-21T04:33:55;11.40;76.40
6556;DHT22;3311;48.32423000;14.29074500;2024-02-21T04:36:22;11.40;76.30
6556;DHT22;3311;48.32423000;14.29074500;2024-02-21T04:38:49;11.40;76.10
6556;DHT22;3311;48.32423000;14.29074500;2024-02-21T04:41:17;11.40;76.20
6556;DHT22;3311;48.32423000;14.29074500;2024-02-21T04:43:46;11.40;75.60
6556;DHT22;3311;48.32423000;14.29074500;2024-02-21T04:46:13;11.50;76.10
6556;DHT22;3311;48.32423000;14.29074500;2024-02-21T04:48:40;11.40;76.30
6556;DHT22;3311;48.32423000;14.29074500;2024-02-21T04:51:07;11.40;76.10
6556;DHT22;3311;48.32423000;14.29074500;2024-02-21T04:53:35;11.40;75.80
6556;DHT22;3311;48.32423000;14.29074500;2024-02-21T04:56:02;11.40;76.80
6556;DHT22;3311;48.32423000;14.29074500;2024-02-21T04:58:29;11.30;75.70
6556;DHT22;3311;48.32423000;14.29074500;2024-02-21T05:01:01;11.30;76.30
6556;DHT22;3311;48.32423000;14.29074500;2024-02-21T05:03:28;11.30;75.80
6556;DHT22;3311;48.32423000;14.29074500;2024-02-21T05:05:55;11.30;75.20
6556;DHT22;3311;48.32423000;14.29074500;2024-02-21T05:08:22;11.30;75.30
6556;DHT22;3311;48.32423000;14.29074500;2024-02-21T05:10:49;11.30;76.00
6556;DHT22;3311;48.32423000;14.29074500;2024-02-21T05:13:17;11.30;76.00
6556;DHT22;3311;48.32423000;14.29074500;2024-02-21T05:15:44;11.30;76.30
6556;DHT22;3311;48.32423000;14.29074500;2024-02-21T05:18:12;11.30;76.00
6556;DHT22;3311;48.32423000;14.29074500;2024-02-21T05:20:39;11.40;75.80
6556;DHT22;3311;48.32423000;14.29074500;2024-02-21T05:23:06;11.40;75.40
6556;DHT22;3311;48.32423000;14.29074500;2024-02-21T05:25:34;11.40;74.90
6556;DHT22;3311;48.32423000;14.29074500;2024-02-21T05:28:01;11.40;75.70
6556;DHT22;3311;48.32423000;14.29074500;2024-02-21T05:30:29;11.30;75.20
6556;DHT22;3311;48.32423000;14.29074500;2024-02-21T05:32:56;11.30;74.60
6556;DHT22;3311;48.32423000;14.29074500;2024-02-21T05:35:27;11.30;75.30
6556;DHT22;3311;48.32423000;14.29074500;2024-02-21T05:37:54;11.40;75.10
6556;DHT22;3311;48.32423000;14.29074500;2024-02-21T05:40:21;11.50;75.40
6556;DHT22;3311;48.32423000;14.29074500;2024-02-21T05:42:48;11.40;75.40
6556;DHT22;3311;48.32423000;14.29074500;2024-02-21T05:45:16;11.50;75.50
6556;DHT22;3311;48.32423000;14.29074500;2024-02-21T05:47:44;11.60;75.60
6556;DHT22;3311;48.32423000;14.29074500;2024-02-21T05:50:11;11.50;74.10
6556;DHT22;3311;48.32423000;14.29074500;2024-02-21T05:52:39;11.40;74.80
6556;DHT22;3311;48.32423000;14.29074500;2024-02-21T05:55:07;11.40;74.70
6556;DHT22;3311;48.32423000;14.29074500;2024-02-21T05:57:34;11.40;73.80
6556;DHT22;3311;48.32423000;14.29074500;2024-02-21T06:00:04;11.40;75.40
6556;DHT22;3311;48.32423000;14.29074500;2024-02-21T06:02:32;11.40;74.50
6556;DHT22;3311;48.32423000;14.29074500;2024-02-21T06:04:59;11.50;74.20
6556;DHT22;3311;48.32423000;14.29074500;2024-02-21T06:07:27;11.50;74.20
6556;DHT22;3311;48.32423000;14.29074500;2024-02-21T06:09:55;11.50;74.10
6556;DHT22;3311;48.32423000;14.29074500;2024-02-21T06:12:22;11.40;74.20
6556;DHT22;3311;48.32423000;14.29074500;2024-02-21T06:14:49;11.50;74.90
6556;DHT22;3311;48.32423000;14.29074500;2024-02-21T06:17:17;11.40;74.50
6556;DHT22;3311;48.32423000;14.29074500;2024-02-21T06:19:44;11.40;74.20
6556;DHT22;3311;48.32423000;14.29074500;2024-02-21T06:22:12;11.40;73.40
6556;DHT22;3311;48.32423000;14.29074500;2024-02-21T06:24:39;11.40;74.50
6556;DHT22;3311;48.32423000;14.29074500;2024-02-21T06:27:07;11.30;74.20
6556;DHT22;3311;48.32423000;14.29074500;2024-02-21T06:29:36;11.30;73.50
6556;DHT22;3311;48.32423000;14.29074500;2024-02-21T06:32:04;11.30;73.40
6556;DHT22;3311;48.32423000;14.29074500;2024-02-21T06:34:31;11.20;74.60
6556;DHT22;3311;48.32423000;14.29074500;2024-02-21T06:36:59;11.20;73.60
6556;DHT22;3311;48.32423000;14.29074500;2024-02-21T06:39:26;11.20;73.80
6556;DHT22;3311;48.32423000;14.29074500;2024-02-21T06:41:54;11.30;74.00
6556;DHT22;3311;48.32423000;14.29074500;2024-02-21T06:44:23;11.30;74.10
6556;DHT22;3311;48.32423000;14.29074500;2024-02-21T06:46:50;11.40;73.60
6556;DHT22;3311;48.32423000;14.29074500;2024-02-21T06:49:17;11.50;73.60
6556;DHT22;3311;48.32423000;14.29074500;2024-02-21T06:51:44;11.50;72.50
6556;DHT22;3311;48.32423000;14.29074500;2024-02-21T06:54:12;11.60;72.40
6556;DHT22;3311;48.32423000;14.29074500;2024-02-21T06:56:41;11.50;72.30
6556;DHT22;3311;48.32423000;14.29074500;2024-02-21T06:59:08;11.60;72.90
6556;DHT22;3311;48.32423000;14.29074500;2024-02-21T07:01:37;11.60;72.70
6556;DHT22;3311;48.32423000;14.29074500;2024-02-21T07:04:05;11.60;72.40
6556;DHT22;3311;48.32423000;14.29074500;2024-02-21T07:06:33;11.70;73.80
6556;DHT22;3311;48.32423000;14.29074500;2024-02-21T07:09:00;11.70;73.60
6556;DHT22;3311;48.32423000;14.29074500;2024-02-21T07:11:27;11.60;73.80
6556;DHT22;3311;48.32423000;14.29074500;2024-02-21T07:13:54;11.60;74.50
6556;DHT22;3311;48.32423000;14.29074500;2024-02-21T07:16:21;11.70;73.10
6556;DHT22;3311;48.32423000;14.29074500;2024-02-21T07:18:50;11.70;73.60
6556;DHT22;3311;48.32423000;14.29074500;2024-02-21T07:21:17;11.60;73.50
6556;DHT22;3311;48.32423000;14.29074500;2024-02-21T07:23:44;11.60;74.00
6556;DHT22;3311;48.32423000;14.29074500;2024-02-21T07:26:11;11.60;73.70
6556;DHT22;3311;48.32423000;14.29074500;2024-02-21T07:28:39;11.60;73.20
6556;DHT22;3311;48.32423000;14.29074500;2024-02-21T07:31:06;11.70;74.10
6556;DHT22;3311;48.32423000;14.29074500;2024-02-21T07:33:33;11.80;73.10
6556;DHT22;3311;48.32423000;14.29074500;2024-02-21T07:36:06;11.80;73.40
6556;DHT22;3311;48.32423000;14.29074500;2024-02-21T07:38:34;11.70;74.00
6556;DHT22;3311;48.32423000;14.29074500;2024-02-21T07:41:01;11.80;74.60
6556;DHT22;3311;48.32423000;14.29074500;2024-02-21T07:43:29;11.80;73.20
6556;DHT22;3311;48.32423000;14.29074500;2024-02-21T07:45:56;11.80;73.70
6556;DHT22;3311;48.32423000;14.29074500;2024-02-21T07:48:24;11.90;74.70
6556;DHT22;3311;48.32423000;14.29074500;2024-02-21T07:50:52;11.90;73.40
6556;DHT22;3311;48.32423000;14.29074500;2024-02-21T07:53:21;12.00;73.40
6556;DHT22;3311;48.32423000;14.29074500;2024-02-21T07:55:48;12.20;73.90
6556;DHT22;3311;48.32423000;14.29074500;2024-02-21T07:58:15;12.40;72.90
6556;DHT22;3311;48.32423000;14.29074500;2024-02-21T08:00:43;12.40;72.00
6556;DHT22;3311;48.32423000;14.29074500;2024-02-21T08:03:10;12.50;73.00
6556;DHT22;3311;48.32423000;14.29074500;2024-02-21T08:05:37;12.70;72.60
6556;DHT22;3311;48.32423000;14.29074500;2024-02-21T08:08:04;12.90;72.20
6556;DHT22;3311;48.32423000;14.29074500;2024-02-21T08:10:34;13.00;71.10
6556;DHT22;3311;48.32423000;14.29074500;2024-02-21T08:13:01;13.10;70.90
6556;DHT22;3311;48.32423000;14.29074500;2024-02-21T08:15:29;13.10;70.60
6556;DHT22;3311;48.32423000;14.29074500;2024-02-21T08:17:56;13.00;69.70
6556;DHT22;3311;48.32423000;14.29074500;2024-02-21T08:20:27;13.10;69.50
6556;DHT22;3311;48.32423000;14.29074500;2024-02-21T08:22:54;13.10;69.90
6556;DHT22;3311;48.32423000;14.29074500;2024-02-21T08:25:21;13.10;70.60
6556;DHT22;3311;48.32423000;14.29074500;2024-02-21T08:27:50;13.00;69.90
6556;DHT22;3311;48.32423000;14.29074500;2024-02-21T08:30:18;13.00;71.00
6556;DHT22;3311;48.32423000;14.29074500;2024-02-21T08:32:45;13.10;71.10
6556;DHT22;3311;48.32423000;14.29074500;2024-02-21T08:35:13;13.00;70.40
6556;DHT22;3311;48.32423000;14.29074500;2024-02-21T08:37:40;13.00;70.50
6556;DHT22;3311;48.32423000;14.29074500;2024-02-21T08:40:10;13.00;70.40
6556;DHT22;3311;48.32423000;14.29074500;2024-02-21T08:42:39;13.00;70.20
6556;DHT22;3311;48.32423000;14.29074500;2024-02-21T08:45:09;13.00;71.00
6556;DHT22;3311;48.32423000;14.29074500;2024-02-21T08:47:39;13.00;70.10
6556;DHT22;3311;48.32423000;14.29074500;2024-02-21T08:50:07;13.00;70.40
6556;DHT22;3311;48.32423000;14.29074500;2024-02-21T08:52:35;13.10;70.10
6556;DHT22;3311;48.32423000;14.29074500;2024-02-21T08:55:03;13.20;69.90
6556;DHT22;3311;48.32423000;14.29074500;2024-02-21T08:57:30;13.30;70.30
6556;DHT22;3311;48.32423000;14.29074500;2024-02-21T09:00:04;13.60;70.40
6556;DHT22;3311;48.32423000;14.29074500;2024-02-21T09:02:39;13.70;69.70
6556;DHT22;3311;48.32423000;14.29074500;2024-02-21T09:05:07;13.80;69.10
6556;DHT22;3311;48.32423000;14.29074500;2024-02-21T09:07:34;13.80;68.90
6556;DHT22;3311;48.32423000;14.29074500;2024-02-21T09:10:02;13.80;68.90
6556;DHT22;3311;48.32423000;14.29074500;2024-02-21T09:12:29;13.80;69.90
6556;DHT22;3311;48.32423000;14.29074500;2024-02-21T09:14:56;13.70;69.40
6556;DHT22;3311;48.32423000;14.29074500;2024-02-21T09:17:24;13.60;69.40
6556;DHT22;3311;48.32423000;14.29074500;2024-02-21T09:19:53;13.60;69.90
6556;DHT22;3311;48.32423000;14.29074500;2024-02-21T09:22:21;13.50;69.00
6556;DHT22;3311;48.32423000;14.29074500;2024-02-21T09:24:49;13.40;68.80
6556;DHT22;3311;48.32423000;14.29074500;2024-02-21T09:27:16;13.50;70.00
6556;DHT22;3311;48.32423000;14.29074500;2024-02-21T09:29:43;13.50;69.30
6556;DHT22;3311;48.32423000;14.29074500;2024-02-21T09:32:10;13.50;69.50
6556;DHT22;3311;48.32423000;14.29074500;2024-02-21T09:34:38;13.50;68.80
6556;DHT22;3311;48.32423000;14.29074500;2024-02-21T09:37:07;13.50;70.10
6556;DHT22;3311;48.32423000;14.29074500;2024-02-21T09:39:34;13.40;69.70
6556;DHT22;3311;48.32423000;14.29074500;2024-02-21T09:42:06;13.40;69.60
6556;DHT22;3311;48.32423000;14.29074500;2024-02-21T09:44:36;13.40;69.80
6556;DHT22;3311;48.32423000;14.29074500;2024-02-21T09:47:07;13.40;69.50
6556;DHT22;3311;48.32423000;14.29074500;2024-02-21T09:49:39;13.40;69.50
6556;DHT22;3311;48.32423000;14.29074500;2024-02-21T09:52:09;13.40;69.10
6556;DHT22;3311;48.32423000;14.29074500;2024-02-21T09:54:39;13.40;69.40
6556;DHT22;3311;48.32423000;14.29074500;2024-02-21T09:57:10;13.40;69.40
6556;DHT22;3311;48.32423000;14.29074500;2024-02-21T09:59:39;13.40;68.90
6556;DHT22;3311;48.32423000;14.29074500;2024-02-21T10:02:07;13.40;68.70
6556;DHT22;3311;48.32423000;14.29074500;2024-02-21T10:04:34;13.40;68.50
6556;DHT22;3311;48.32423000;14.29074500;2024-02-21T10:07:02;13.40;68.20
6556;DHT22;3311;48.32423000;14.29074500;2024-02-21T10:09:31;13.40;69.10
6556;DHT22;3311;48.32423000;14.29074500;2024-02-21T10:12:08;13.40;68.80
6556;DHT22;3311;48.32423000;14.29074500;2024-02-21T10:14:36;13.50;69.30
6556;DHT22;3311;48.32423000;14.29074500;2024-02-21T10:17:03;13.50;69.20
6556;DHT22;3311;48.32423000;14.29074500;2024-02-21T10:19:35;13.50;68.60
6556;DHT22;3311;48.32423000;14.29074500;2024-02-21T10:22:03;13.50;69.20
6556;DHT22;3311;48.32423000;14.29074500;2024-02-21T10:24:32;13.50;68.80
6556;DHT22;3311;48.32423000;14.29074500;2024-02-21T10:27:02;13.50;69.10
6556;DHT22;3311;48.32423000;14.29074500;2024-02-21T10:29:30;13.60;68.90
6556;DHT22;3311;48.32423000;14.29074500;2024-02-21T10:32:05;13.50;68.80
6556;DHT22;3311;48.32423000;14.29074500;2024-02-21T10:34:32;13.50;68.80
6556;DHT22;3311;48.32423000;14.29074500;2024-02-21T10:37:01;13.50;67.50
6556;DHT22;3311;48.32423000;14.29074500;2024-02-21T10:39:29;13.40;68.40
6556;DHT22;3311;48.32423000;14.29074500;2024-02-21T10:42:01;13.50;68.90
6556;DHT22;3311;48.32423000;14.29074500;2024-02-21T10:44:31;13.50;68.00
6556;DHT22;3311;48.32423000;14.29074500;2024-02-21T10:46:59;13.50;69.20
6556;DHT22;3311;48.32423000;14.29074500;2024-02-21T10:49:27;13.60;68.60
6556;DHT22;3311;48.32423000;14.29074500;2024-02-21T10:52:05;13.60;68.70
6556;DHT22;3311;48.32423000;14.29074500;2024-02-21T10:54:44;13.50;67.90
6556;DHT22;3311;48.32423000;14.29074500;2024-02-21T10:57:15;13.60;68.30
6556;DHT22;3311;48.32423000;14.29074500;2024-02-21T10:59:44;13.60;67.90
6556;DHT22;3311;48.32423000;14.29074500;2024-02-21T11:02:12;13.60;68.30
6556;DHT22;3311;48.32423000;14.29074500;2024-02-21T11:04:40;13.60;67.50
6556;DHT22;3311;48.32423000;14.29074500;2024-02-21T11:07:08;13.60;68.40
6556;DHT22;3311;48.32423000;14.29074500;2024-02-21T11:09:36;13.60;68.20
6556;DHT22;3311;48.32423000;14.29074500;2024-02-21T11:12:04;13.60;68.30
6556;DHT22;3311;48.32423000;14.29074500;2024-02-21T11:14:34;13.60;68.00
6556;DHT22;3311;48.32423000;14.29074500;2024-02-21T11:17:03;13.60;67.20
6556;DHT22;3311;48.32423000;14.29074500;2024-02-21T11:19:41;13.60;67.50
6556;DHT22;3311;48.32423000;14.29074500;2024-02-21T11:22:14;13.60;67.80
6556;DHT22;3311;48.32423000;14.29074500;2024-02-21T11:24:43;13.60;67.60
6556;DHT22;3311;48.32423000;14.29074500;2024-02-21T11:27:12;13.60;68.20
6556;DHT22;3311;48.32423000;14.29074500;2024-02-21T11:29:43;13.60;67.70
6556;DHT22;3311;48.32423000;14.29074500;2024-02-21T11:32:10;13.60;67.80
6556;DHT22;3311;48.32423000;14.29074500;2024-02-21T11:34:38;13.70;68.60
6556;DHT22;3311;48.32423000;14.29074500;2024-02-21T11:37:14;13.70;68.80
6556;DHT22;3311;48.32423000;14.29074500;2024-02-21T11:39:42;13.80;68.10
6556;DHT22;3311;48.32423000;14.29074500;2024-02-21T11:42:10;13.80;67.60
6556;DHT22;3311;48.32423000;14.29074500;2024-02-21T11:44:38;13.80;67.80
6556;DHT22;3311;48.32423000;14.29074500;2024-02-21T11:47:09;13.90;67.50
6556;DHT22;3311;48.32423000;14.29074500;2024-02-21T11:49:38;13.90;67.40
6556;DHT22;3311;48.32423000;14.29074500;2024-02-21T11:52:06;13.90;66.90
6556;DHT22;3311;48.32423000;14.29074500;2024-02-21T11:54:34;14.00;67.50
6556;DHT22;3311;48.32423000;14.29074500;2024-02-21T11:57:01;14.00;67.20
6556;DHT22;3311;48.32423000;14.29074500;2024-02-21T11:59:30;14.00;67.50
6556;DHT22;3311;48.32423000;14.29074500;2024-02-21T12:01:59;14.00;66.80
6556;DHT22;3311;48.32423000;14.29074500;2024-02-21T12:04:28;14.00;66.80
6556;DHT22;3311;48.32423000;14.29074500;2024-02-21T12:06:57;14.00;66.40
6556;DHT22;3311;48.32423000;14.29074500;2024-02-21T12:09:25;14.00;66.80
6556;DHT22;3311;48.32423000;14.29074500;2024-02-21T12:11:59;14.00;66.40
6556;DHT22;3311;48.32423000;14.29074500;2024-02-21T12:14:28;14.00;66.90
6556;DHT22;3311;48.32423000;14.29074500;2024-02-21T12:16:56;14.00;67.10
6556;DHT22;3311;48.32423000;14.29074500;2024-02-21T12:19:24;14.00;67.30
6556;DHT22;3311;48.32423000;14.29074500;2024-02-21T12:21:54;14.00;66.20
6556;DHT22;3311;48.32423000;14.29074500;2024-02-21T12:24:24;14.00;66.10
6556;DHT22;3311;48.32423000;14.29074500;2024-02-21T12:26:52;14.10;66.70
6556;DHT22;3311;48.32423000;14.29074500;2024-02-21T12:29:20;14.00;65.70
6556;DHT22;3311;48.32423000;14.29074500;2024-02-21T12:31:47;14.10;66.00
6556;DHT22;3311;48.32423000;14.29074500;2024-02-21T12:34:15;14.00;65.60
6556;DHT22;3311;48.32423000;14.29074500;2024-02-21T12:36:43;14.00;65.60
6556;DHT22;3311;48.32423000;14.29074500;2024-02-21T12:39:14;14.10;65.20
6556;DHT22;3311;48.32423000;14.29074500;2024-02-21T12:41:42;14.10;65.80
6556;DHT22;3311;48.32423000;14.29074500;2024-02-21T12:44:10;14.10;66.50
6556;DHT22;3311;48.32423000;14.29074500;2024-02-21T12:46:38;14.10;65.70
6556;DHT22;3311;48.32423000;14.29074500;2024-02-21T12:49:06;14.10;65.50
6556;DHT22;3311;48.32423000;14.29074500;2024-02-21T12:51:34;14.10;64.30
6556;DHT22;3311;48.32423000;14.29074500;2024-02-21T12:54:02;14.10;64.90
6556;DHT22;3311;48.32423000;14.29074500;2024-02-21T12:56:31;14.00;64.70
6556;DHT22;3311;48.32423000;14.29074500;2024-02-21T12:58:58;14.10;65.10
6556;DHT22;3311;48.32423000;14.29074500;2024-02-21T13:01:25;14.10;65.10
6556;DHT22;3311;48.32423000;14.29074500;2024-02-21T13:03:53;14.10;64.60
6556;DHT22;3311;48.32423000;14.29074500;2024-02-21T13:06:21;14.10;64.80
6556;DHT22;3311;48.32423000;14.29074500;2024-02-21T13:08:48;14.10;64.70
6556;DHT22;3311;48.32423000;14.29074500;2024-02-21T13:11:16;14.10;63.50
6556;DHT22;3311;48.32423000;14.29074500;2024-02-21T13:13:45;14.10;64.70
6556;DHT22;3311;48.32423000;14.29074500;2024-02-21T13:16:12;14.10;64.10
6556;DHT22;3311;48.32423000;14.29074500;2024-02-21T13:18:39;14.10;64.20
6556;DHT22;3311;48.32423000;14.29074500;2024-02-21T13:21:08;14.10;64.50
6556;DHT22;3311;48.32423000;14.29074500;2024-02-21T13:23:35;14.10;62.80
6556;DHT22;3311;48.32423000;14.29074500;2024-02-21T13:26:03;14.10;64.30
6556;DHT22;3311;48.32423000;14.29074500;2024-02-21T13:28:30;14.10;64.10
6556;DHT22;3311;48.32423000;14.29074500;2024-02-21T13:30:59;14.10;63.80
6556;DHT22;3311;48.32423000;14.29074500;2024-02-21T13:33:26;14.10;63.90
6556;DHT22;3311;48.32423000;14.29074500;2024-02-21T13:35:54;14.10;64.10
6556;DHT22;3311;48.32423000;14.29074500;2024-02-21T13:38:21;14.10;63.70
6556;DHT22;3311;48.32423000;14.29074500;2024-02-21T13:40:50;14.10;63.70